createdAt,value
2022-12-28T00:01:29.763Z,-6.20
2022-12-28T00:04:00.066Z,-6.30
2022-12-28T00:06:27.581Z,-6.30
2022-12-28T00:08:56.234Z,-6.40
2022-12-28T00:11:27.773Z,-6.30
2022-12-28T00:14:01.684Z,-6.10
2022-12-28T00:16:37.165Z,-6.00
2022-12-28T00:19:14.274Z,-6.10
2022-12-28T00:21:42.238Z,-6.20
2022-12-28T00:24:14.674Z,-6.20
2022-12-28T00:26:41.439Z,-6.40
2022-12-28T00:29:08.914Z,-6.40
2022-12-28T00:31:35.764Z,-6.40
2022-12-28T00:34:03.391Z,-6.30
2022-12-28T00:37:09.012Z,-6.40
2022-12-28T00:39:18.611Z,-6.40
2022-12-28T00:41:45.409Z,-6.50
2022-12-28T00:44:12.216Z,-6.50
2022-12-28T00:46:39.125Z,-6.50
2022-12-28T00:49:05.909Z,-6.50
2022-12-28T00:51:33.492Z,-6.50
2022-12-28T00:54:00.395Z,-6.60
2022-12-28T00:56:27.324Z,-6.70
2022-12-28T00:58:58.785Z,-6.70
2022-12-28T01:01:26.756Z,-6.80
2022-12-28T01:03:57.092Z,-6.80
2022-12-28T01:06:25.773Z,-6.90
2022-12-28T01:08:52.928Z,-7.00
2022-12-28T01:11:26.303Z,-7.10
2022-12-28T01:13:55.730Z,-7.20
2022-12-28T01:16:33.742Z,-7.20
2022-12-28T01:19:03.022Z,-7.20
2022-12-28T01:21:31.668Z,-7.20
2022-12-28T01:24:01.384Z,-7.20
2022-12-28T01:26:29.512Z,-7.20
2022-12-28T01:28:58.066Z,-7.20
2022-12-28T01:31:25.261Z,-7.10
2022-12-28T01:33:52.433Z,-7.10
2022-12-28T01:36:24.409Z,-7.10
2022-12-28T01:39:03.702Z,-7.00
2022-12-28T01:41:32.851Z,-7.00
2022-12-28T01:43:59.668Z,-7.00
2022-12-28T01:46:52.194Z,-7.10
2022-12-28T01:49:54.013Z,-7.10
2022-12-28T01:52:38.889Z,-7.10
2022-12-28T01:55:09.894Z,-7.00
2022-12-28T01:57:42.467Z,-7.00
2022-12-28T02:00:13.469Z,-7.00
2022-12-28T02:02:56.524Z,-7.10
2022-12-28T02:05:27.683Z,-7.10
2022-12-28T02:07:57.901Z,-7.00
2022-12-28T02:10:42.370Z,-7.00
2022-12-28T02:13:14.506Z,-6.90
2022-12-28T02:15:41.441Z,-6.90
2022-12-28T02:18:08.783Z,-6.90
2022-12-28T02:21:10.636Z,-6.90
2022-12-28T02:23:40.714Z,-6.90
2022-12-28T02:26:37.013Z,-6.90
2022-12-28T02:29:27.958Z,-6.90
2022-12-28T02:32:00.839Z,-7.00
2022-12-28T02:34:32.475Z,-7.00
2022-12-28T02:37:15.716Z,-7.00
2022-12-28T02:39:51.819Z,-7.00
2022-12-28T02:42:20.732Z,-7.00
2022-12-28T02:45:06.734Z,-6.90
2022-12-28T02:47:53.058Z,-6.90
2022-12-28T02:50:20.772Z,-6.80
2022-12-28T02:53:12.657Z,-6.90
2022-12-28T02:56:09.897Z,-6.90
2022-12-28T02:59:03.668Z,-7.00
2022-12-28T03:01:55.952Z,-7.00
2022-12-28T03:04:47.359Z,-7.10
2022-12-28T03:07:55.095Z,-7.10
2022-12-28T03:10:38.553Z,-7.10
2022-12-28T03:13:40.492Z,-7.20
2022-12-28T03:16:29.389Z,-7.10
2022-12-28T03:19:26.995Z,-7.10
2022-12-28T03:22:15.726Z,-7.00
2022-12-28T03:25:04.130Z,-7.00
2022-12-28T03:27:52.618Z,-6.90
2022-12-28T03:30:43.332Z,-6.90
2022-12-28T03:33:11.788Z,-7.00
2022-12-28T03:35:55.908Z,-6.90
2022-12-28T03:38:53.921Z,-6.90
2022-12-28T03:41:28.774Z,-6.80
2022-12-28T03:44:11.789Z,-6.80
2022-12-28T03:47:07.884Z,-6.80
2022-12-28T03:49:35.793Z,-6.80
2022-12-28T03:52:03.624Z,-6.80
2022-12-28T03:54:30.444Z,-6.90
2022-12-28T03:56:57.493Z,-7.00
2022-12-28T03:59:29.305Z,-7.10
2022-12-28T04:01:57.243Z,-7.10
2022-12-28T04:04:24.153Z,-7.10
2022-12-28T04:06:51.183Z,-7.10
2022-12-28T04:09:18.108Z,-7.10
2022-12-28T04:11:44.966Z,-7.00
2022-12-28T04:14:19.531Z,-6.80
2022-12-28T04:16:47.339Z,-6.80
2022-12-28T04:19:16.806Z,-6.80
2022-12-28T04:21:43.873Z,-6.70
2022-12-28T04:24:10.708Z,-6.60
2022-12-28T04:26:38.097Z,-6.50
2022-12-28T04:29:05.008Z,-6.50
2022-12-28T04:31:31.967Z,-6.40
2022-12-28T04:34:06.468Z,-6.40
2022-12-28T04:36:39.434Z,-6.40
2022-12-28T04:39:11.025Z,-6.40
2022-12-28T04:41:38.110Z,-6.30
2022-12-28T04:44:04.984Z,-6.30
2022-12-28T04:46:32.327Z,-6.30
2022-12-28T04:49:01.206Z,-6.20
2022-12-28T04:51:29.251Z,-6.30
2022-12-28T04:53:57.160Z,-6.20
2022-12-28T04:56:25.480Z,-6.30
2022-12-28T04:58:59.986Z,-6.30
2022-12-28T05:01:27.093Z,-6.30
2022-12-28T05:03:58.002Z,-6.40
2022-12-28T05:06:27.789Z,-6.40
2022-12-28T05:08:56.673Z,-6.40
2022-12-28T05:11:27.610Z,-6.30
2022-12-28T05:13:54.701Z,-6.30
2022-12-28T05:16:23.880Z,-6.30
2022-12-28T05:18:50.808Z,-6.30
2022-12-28T05:21:22.970Z,-6.30
2022-12-28T05:23:50.438Z,-6.30
2022-12-28T05:26:23.226Z,-6.30
2022-12-28T05:28:50.695Z,-6.40
2022-12-28T05:31:20.324Z,-6.40
2022-12-28T05:33:47.670Z,-6.30
2022-12-28T05:36:20.092Z,-6.40
2022-12-28T05:38:46.988Z,-6.40
2022-12-28T05:41:20.402Z,-6.50
2022-12-28T05:43:47.856Z,-6.50
2022-12-28T05:46:19.569Z,-6.50
2022-12-28T05:48:47.244Z,-6.40
2022-12-28T05:51:16.794Z,-6.40
2022-12-28T05:53:43.801Z,-6.40
2022-12-28T05:56:14.726Z,-6.40
2022-12-28T05:58:42.870Z,-6.40
2022-12-28T06:01:11.037Z,-6.30
2022-12-28T06:03:38.657Z,-6.30
2022-12-28T06:06:14.771Z,-6.10
2022-12-28T06:08:42.529Z,-6.10
2022-12-28T06:11:12.029Z,-6.10
2022-12-28T06:13:39.112Z,-6.00
2022-12-28T06:16:12.597Z,-6.00
2022-12-28T06:18:39.776Z,-5.90
2022-12-28T06:21:18.660Z,-5.90
2022-12-28T06:23:46.432Z,-6.00
2022-12-28T06:26:14.412Z,-6.00
2022-12-28T06:28:42.239Z,-6.00
2022-12-28T06:31:09.122Z,-6.00
2022-12-28T06:33:36.129Z,-5.90
2022-12-28T06:36:03.377Z,-5.90
2022-12-28T06:38:32.904Z,-5.90
2022-12-28T06:41:13.844Z,-5.90
2022-12-28T06:43:42.941Z,-5.90
2022-12-28T06:46:11.038Z,-5.90
2022-12-28T06:48:38.056Z,-5.80
2022-12-28T06:51:09.920Z,-5.70
2022-12-28T06:53:38.405Z,-5.80
2022-12-28T06:56:15.188Z,-5.80
2022-12-28T06:58:42.971Z,-5.70
2022-12-28T07:01:14.337Z,-5.70
2022-12-28T07:03:42.484Z,-5.70
2022-12-28T07:06:09.907Z,-5.80
2022-12-28T07:08:37.061Z,-5.80
2022-12-28T07:11:12.942Z,-5.90
2022-12-28T07:13:40.282Z,-5.90
2022-12-28T07:16:21.049Z,-5.90
2022-12-28T07:18:48.570Z,-5.90
2022-12-28T07:21:17.210Z,-5.90
2022-12-28T07:23:44.212Z,-5.80
2022-12-28T07:26:13.852Z,-5.80
2022-12-28T07:28:43.069Z,-5.80
2022-12-28T07:31:24.168Z,-5.80
2022-12-28T07:33:53.525Z,-5.90
2022-12-28T07:36:21.955Z,-5.90
2022-12-28T07:38:49.123Z,-5.80
2022-12-28T07:41:18.786Z,-5.80
2022-12-28T07:43:46.090Z,-5.80
2022-12-28T07:46:15.966Z,-5.90
2022-12-28T07:48:43.869Z,-5.90
2022-12-28T07:51:13.291Z,-5.80
2022-12-28T07:53:41.724Z,-5.80
2022-12-28T07:56:09.058Z,-5.80
2022-12-28T07:58:36.262Z,-5.80
2022-12-28T08:01:14.299Z,-5.80
2022-12-28T08:03:42.222Z,-5.80
2022-12-28T08:06:13.457Z,-5.80
2022-12-28T08:08:42.872Z,-5.80
2022-12-28T08:11:12.866Z,-5.90
2022-12-28T08:13:42.972Z,-5.80
2022-12-28T08:16:12.453Z,-5.80
2022-12-28T08:18:40.395Z,-5.80
2022-12-28T08:21:09.121Z,-5.80
2022-12-28T08:23:35.969Z,-5.80
2022-12-28T08:26:17.541Z,-5.70
2022-12-28T08:28:45.914Z,-5.70
2022-12-28T08:31:16.027Z,-5.70
2022-12-28T08:33:43.631Z,-5.70
2022-12-28T08:36:11.061Z,-5.80
2022-12-28T08:38:39.450Z,-5.80
2022-12-28T08:41:09.180Z,-5.80
2022-12-28T08:43:36.043Z,-5.90
2022-12-28T08:46:06.054Z,-5.90
2022-12-28T08:48:33.893Z,-5.90
2022-12-28T08:51:05.109Z,-5.90
2022-12-28T08:53:32.786Z,-5.80
2022-12-28T08:56:10.410Z,-5.80
2022-12-28T08:58:40.691Z,-5.80
2022-12-28T09:01:07.681Z,-5.70
2022-12-28T09:03:39.136Z,-5.80
2022-12-28T09:06:08.238Z,-5.80
2022-12-28T09:08:34.999Z,-5.80
2022-12-28T09:11:04.380Z,-5.70
2022-12-28T09:13:32.766Z,-5.80
2022-12-28T09:16:02.372Z,-5.80
2022-12-28T09:18:29.503Z,-5.90
2022-12-28T09:20:56.587Z,-5.80
2022-12-28T09:23:23.452Z,-5.90
2022-12-28T09:25:50.385Z,-5.80
2022-12-28T09:28:17.187Z,-5.70
2022-12-28T09:30:43.916Z,-5.70
2022-12-28T09:33:29.801Z,-5.60
2022-12-28T09:35:59.883Z,-5.60
2022-12-28T09:38:26.694Z,-5.50
2022-12-28T09:40:53.471Z,-5.50
2022-12-28T09:43:21.235Z,-5.40
2022-12-28T09:45:48.298Z,-5.40
2022-12-28T09:48:19.458Z,-5.40
2022-12-28T09:50:48.459Z,-5.40
2022-12-28T09:53:30.334Z,-5.40
2022-12-28T09:56:14.848Z,-5.40
2022-12-28T09:58:47.875Z,-5.40
2022-12-28T10:01:18.030Z,-5.30
2022-12-28T10:03:47.222Z,-5.30
2022-12-28T10:06:32.168Z,-5.30
2022-12-28T10:09:01.479Z,-5.30
2022-12-28T10:11:33.213Z,-5.30
2022-12-28T10:14:03.287Z,-5.30
2022-12-28T10:16:32.953Z,-5.30
2022-12-28T10:19:00.570Z,-5.20
2022-12-28T10:21:32.890Z,-5.20
2022-12-28T10:24:30.277Z,-5.20
2022-12-28T10:26:48.932Z,-5.10
2022-12-28T10:29:21.107Z,-5.10
2022-12-28T10:32:03.267Z,-5.10
2022-12-28T10:34:35.162Z,-5.00
2022-12-28T10:37:15.963Z,-5.00
2022-12-28T10:39:53.314Z,-5.00
2022-12-28T10:42:35.387Z,-5.00
2022-12-28T10:45:07.731Z,-5.00
2022-12-28T10:47:41.320Z,-5.00
2022-12-28T10:50:42.361Z,-5.00
2022-12-28T10:53:32.213Z,-5.00
2022-12-28T10:56:14.106Z,-4.90
2022-12-28T10:58:42.949Z,-4.90
2022-12-28T11:01:12.832Z,-4.80
2022-12-28T11:03:59.470Z,-4.80
2022-12-28T11:06:50.300Z,-4.80
2022-12-28T11:09:28.929Z,-4.80
2022-12-28T11:12:15.841Z,-4.80
2022-12-28T11:14:42.881Z,-4.80
2022-12-28T11:17:28.821Z,-4.70
2022-12-28T11:20:01.330Z,-4.70
2022-12-28T11:22:29.871Z,-4.60
2022-12-28T11:24:59.545Z,-4.60
2022-12-28T11:27:26.502Z,-4.60
2022-12-28T11:29:55.084Z,-4.50
2022-12-28T11:32:26.036Z,-4.40
2022-12-28T11:34:55.443Z,-4.40
2022-12-28T11:37:22.233Z,-4.30
2022-12-28T11:39:50.726Z,-4.30
2022-12-28T11:42:41.271Z,-4.20
2022-12-28T11:45:15.968Z,-4.20
2022-12-28T11:47:43.259Z,-4.30
2022-12-28T11:50:36.556Z,-4.40
2022-12-28T11:53:09.138Z,-4.40
2022-12-28T11:55:58.860Z,-4.50
2022-12-28T11:58:31.615Z,-4.50
2022-12-28T12:01:00.215Z,-4.50
2022-12-28T12:03:58.325Z,-4.50
2022-12-28T12:06:43.444Z,-4.40
2022-12-28T12:09:38.256Z,-4.40
2022-12-28T12:12:17.660Z,-4.40
2022-12-28T12:14:48.345Z,-4.40
2022-12-28T12:17:25.230Z,-4.40
2022-12-28T12:20:00.545Z,-4.40
2022-12-28T12:22:35.203Z,-4.30
2022-12-28T12:25:07.866Z,-4.30
2022-12-28T12:27:41.457Z,-4.30
2022-12-28T12:30:14.387Z,-4.30
2022-12-28T12:32:48.558Z,-4.20
2022-12-28T12:35:22.451Z,-4.30
2022-12-28T12:38:01.036Z,-4.30
2022-12-28T12:40:50.416Z,-4.20
2022-12-28T12:43:47.090Z,-4.20
2022-12-28T12:46:34.399Z,-4.20
2022-12-28T12:49:07.266Z,-4.20
2022-12-28T12:51:41.810Z,-4.20
2022-12-28T12:54:27.619Z,-4.20
2022-12-28T12:57:08.186Z,-4.20
2022-12-28T13:00:00.651Z,-4.20
2022-12-28T13:02:49.017Z,-4.20
2022-12-28T13:05:24.429Z,-4.20
2022-12-28T13:07:53.159Z,-4.10
2022-12-28T13:10:44.545Z,-4.20
2022-12-28T13:13:25.556Z,-4.10
2022-12-28T13:15:54.307Z,-4.10
2022-12-28T13:21:17.078Z,-4.20
2022-12-28T13:23:45.460Z,-4.20
2022-12-28T13:26:14.508Z,-4.30
2022-12-28T13:29:01.933Z,-4.30
2022-12-28T13:31:38.762Z,-4.30
2022-12-28T13:34:30.047Z,-4.30
2022-12-28T13:36:58.974Z,-4.30
2022-12-28T13:39:30.286Z,-4.40
2022-12-28T13:42:04.120Z,-4.40
2022-12-28T13:44:43.380Z,-4.30
2022-12-28T13:47:24.465Z,-4.40
2022-12-28T13:49:54.454Z,-4.30
2022-12-28T13:52:43.807Z,-4.20
2022-12-28T13:55:24.379Z,-4.30
2022-12-28T13:57:59.766Z,-4.30
2022-12-28T14:00:29.429Z,-4.30
2022-12-28T14:02:58.621Z,-4.40
2022-12-28T14:05:28.182Z,-4.40
2022-12-28T14:07:57.709Z,-4.40
2022-12-28T14:10:24.887Z,-4.40
2022-12-28T14:12:53.282Z,-4.40
2022-12-28T14:15:20.511Z,-4.40
2022-12-28T14:17:49.520Z,-4.40
2022-12-28T14:20:16.630Z,-4.40
2022-12-28T14:22:43.650Z,-4.40
2022-12-28T14:25:19.343Z,-4.40
2022-12-28T14:28:01.921Z,-4.30
2022-12-28T14:30:38.018Z,-4.40
2022-12-28T14:36:18.655Z,-4.30
2022-12-28T14:38:48.673Z,-4.30
2022-12-28T14:41:32.339Z,-4.20
2022-12-28T14:44:03.482Z,-4.20
2022-12-28T14:46:34.072Z,-4.30
2022-12-28T14:49:21.690Z,-4.30
2022-12-28T14:51:48.573Z,-4.30
2022-12-28T14:54:17.349Z,-4.30
2022-12-28T14:56:50.337Z,-4.20
2022-12-28T14:59:33.582Z,-4.20
2022-12-28T15:02:00.554Z,-4.20
2022-12-28T15:04:41.968Z,-4.20
2022-12-28T15:07:11.846Z,-4.30
2022-12-28T15:09:38.864Z,-4.30
2022-12-28T15:12:17.937Z,-4.40
2022-12-28T15:14:45.011Z,-4.50
2022-12-28T15:17:12.275Z,-4.50
2022-12-28T15:19:39.374Z,-4.50
2022-12-28T15:22:06.192Z,-4.50
2022-12-28T15:24:34.682Z,-4.50
2022-12-28T15:27:03.039Z,-4.50
2022-12-28T15:29:56.071Z,-4.50
2022-12-28T15:32:16.725Z,-4.50
2022-12-28T15:34:43.629Z,-4.50
2022-12-28T15:37:10.354Z,-4.40
2022-12-28T15:39:37.430Z,-4.40
2022-12-28T15:42:04.211Z,-4.30
2022-12-28T15:44:30.998Z,-4.30
2022-12-28T15:46:57.936Z,-4.30
2022-12-28T15:49:24.744Z,-4.40
2022-12-28T15:51:51.555Z,-4.40
2022-12-28T15:54:18.783Z,-4.30
2022-12-28T15:56:52.534Z,-4.40
2022-12-28T15:59:19.650Z,-4.30
2022-12-28T16:01:47.460Z,-4.30
2022-12-28T16:04:14.647Z,-4.30
2022-12-28T16:06:44.529Z,-4.30
2022-12-28T16:09:13.448Z,-4.30
2022-12-28T16:11:40.986Z,-4.20
2022-12-28T16:14:12.940Z,-4.30
2022-12-28T16:16:40.803Z,-4.30
2022-12-28T16:19:08.978Z,-4.20
2022-12-28T16:21:36.209Z,-4.30
2022-12-28T16:24:03.687Z,-4.20
2022-12-28T16:26:30.472Z,-4.20
2022-12-28T16:29:00.166Z,-4.30
2022-12-28T16:31:28.335Z,-4.20
2022-12-28T16:33:57.730Z,-4.20
2022-12-28T16:36:25.340Z,-4.30
2022-12-28T16:38:52.997Z,-4.20
2022-12-28T16:41:20.794Z,-4.20
2022-12-28T16:43:48.640Z,-4.30
2022-12-28T16:46:15.656Z,-4.30
2022-12-28T16:48:42.964Z,-4.20
2022-12-28T16:51:10.436Z,-4.20
2022-12-28T16:53:37.825Z,-4.20
2022-12-28T16:56:06.070Z,-4.20
2022-12-28T16:58:33.831Z,-4.10
2022-12-28T17:01:07.317Z,-4.10
2022-12-28T17:03:35.199Z,-4.10
2022-12-28T17:06:02.567Z,-4.10
2022-12-28T17:08:29.317Z,-4.10
2022-12-28T17:10:56.357Z,-4.10
2022-12-28T17:13:23.594Z,-4.10
2022-12-28T17:15:50.558Z,-4.10
2022-12-28T17:18:17.458Z,-4.10
2022-12-28T17:20:45.125Z,-4.00
2022-12-28T17:23:13.045Z,-4.10
2022-12-28T17:25:40.007Z,-4.10
2022-12-28T17:28:07.073Z,-4.10
2022-12-28T17:30:34.392Z,-4.10
2022-12-28T17:33:01.319Z,-4.10
2022-12-28T17:35:28.159Z,-4.10
2022-12-28T17:37:54.961Z,-4.10
2022-12-28T17:40:22.116Z,-4.10
2022-12-28T17:42:48.990Z,-4.10
2022-12-28T17:45:15.867Z,-4.10
2022-12-28T17:47:42.760Z,-4.20
2022-12-28T17:50:09.874Z,-4.20
2022-12-28T17:52:36.751Z,-4.30
2022-12-28T17:55:04.428Z,-4.40
2022-12-28T17:57:36.868Z,-4.40
2022-12-28T18:00:06.589Z,-4.40
2022-12-28T18:02:39.212Z,-4.40
2022-12-28T18:05:06.777Z,-4.50
2022-12-28T18:07:34.273Z,-4.50
2022-12-28T18:10:01.007Z,-4.50
2022-12-28T18:12:27.934Z,-4.40
2022-12-28T18:14:54.720Z,-4.40
2022-12-28T18:17:23.372Z,-4.40
2022-12-28T18:19:53.480Z,-4.50
2022-12-28T18:22:22.971Z,-4.50
2022-12-28T18:24:50.635Z,-4.50
2022-12-28T18:27:17.671Z,-4.50
2022-12-28T18:29:45.268Z,-4.50
2022-12-28T18:32:12.276Z,-4.50
2022-12-28T18:34:39.174Z,-4.50
2022-12-28T18:37:06.238Z,-4.50
2022-12-28T18:39:33.928Z,-4.40
2022-12-28T18:42:02.889Z,-4.50
2022-12-28T18:44:29.688Z,-4.50
2022-12-28T18:46:56.613Z,-4.50
2022-12-28T18:49:24.667Z,-4.50
2022-12-28T18:51:51.571Z,-4.50
2022-12-28T18:54:18.553Z,-4.60
2022-12-28T18:56:45.442Z,-4.60
2022-12-28T18:59:12.242Z,-4.70
2022-12-28T19:02:06.038Z,-4.70
2022-12-28T19:04:26.731Z,-4.70
2022-12-28T19:06:53.678Z,-4.60
2022-12-28T19:09:20.550Z,-4.70
2022-12-28T19:11:47.538Z,-4.70
2022-12-28T19:14:15.761Z,-4.70
2022-12-28T19:16:44.019Z,-4.70
2022-12-28T19:19:11.941Z,-4.60
2022-12-28T19:21:40.796Z,-4.70
2022-12-28T19:24:15.967Z,-4.70
2022-12-28T19:26:43.078Z,-4.60
2022-12-28T19:29:13.676Z,-4.60
2022-12-28T19:31:40.499Z,-4.60
2022-12-28T19:34:07.432Z,-4.70
2022-12-28T19:36:34.212Z,-4.70
2022-12-28T19:39:01.068Z,-4.80
2022-12-28T19:41:27.943Z,-4.80
2022-12-28T19:43:54.917Z,-4.80
2022-12-28T19:46:30.698Z,-4.70
2022-12-28T19:49:02.623Z,-4.80
2022-12-28T19:51:32.009Z,-4.80
2022-12-28T19:54:00.179Z,-4.70
2022-12-28T19:56:27.031Z,-4.70
2022-12-28T19:58:56.621Z,-4.70
2022-12-28T20:01:28.144Z,-4.60
2022-12-28T20:03:55.725Z,-4.60
2022-12-28T20:06:27.086Z,-4.60
2022-12-28T20:08:57.421Z,-4.60
2022-12-28T20:11:24.581Z,-4.70
2022-12-28T20:13:53.686Z,-4.70
2022-12-28T20:16:21.606Z,-4.70
2022-12-28T20:18:49.954Z,-4.80
2022-12-28T20:21:20.070Z,-4.70
2022-12-28T20:23:48.480Z,-4.80
2022-12-28T20:26:15.695Z,-4.80
2022-12-28T20:28:42.639Z,-4.70
2022-12-28T20:31:13.151Z,-4.70
2022-12-28T20:33:40.936Z,-4.70
2022-12-28T20:36:14.095Z,-4.60
2022-12-28T20:38:41.293Z,-4.60
2022-12-28T20:41:32.479Z,-4.60
2022-12-28T20:44:00.705Z,-4.60
2022-12-28T20:46:28.021Z,-4.60
2022-12-28T20:48:55.708Z,-4.60
2022-12-28T20:51:22.895Z,-4.50
2022-12-28T20:53:49.672Z,-4.50
2022-12-28T20:56:16.560Z,-4.60
2022-12-28T20:58:43.571Z,-4.50
2022-12-28T21:01:13.312Z,-4.50
2022-12-28T21:03:40.473Z,-4.50
2022-12-28T21:06:07.965Z,-4.50
2022-12-28T21:08:34.998Z,-4.50
2022-12-28T21:11:02.243Z,-4.40
2022-12-28T21:13:29.176Z,-4.40
2022-12-28T21:15:56.402Z,-4.40
2022-12-28T21:18:23.575Z,-4.40
2022-12-28T21:20:58.814Z,-4.40
2022-12-28T21:23:26.618Z,-4.40
2022-12-28T21:25:59.399Z,-4.50
2022-12-28T21:28:26.176Z,-4.50
2022-12-28T21:30:57.128Z,-4.50
2022-12-28T21:33:24.468Z,-4.60
2022-12-28T21:35:58.502Z,-4.60
2022-12-28T21:38:25.481Z,-4.70
2022-12-28T21:41:05.692Z,-4.70
2022-12-28T21:43:33.175Z,-4.70
2022-12-28T21:46:03.095Z,-4.70
2022-12-28T21:48:34.573Z,-4.70
2022-12-28T21:51:05.612Z,-4.80
2022-12-28T21:53:32.717Z,-4.80
2022-12-28T21:55:59.585Z,-4.80
2022-12-28T21:58:26.374Z,-4.80
2022-12-28T22:01:16.519Z,-4.80
2022-12-28T22:04:02.259Z,-4.80
2022-12-28T22:06:29.213Z,-4.80
2022-12-28T22:09:14.755Z,-4.80
2022-12-28T22:12:00.415Z,-4.80
2022-12-28T22:14:27.180Z,-4.80
2022-12-28T22:16:54.049Z,-4.80
2022-12-28T22:19:21.192Z,-4.80
2022-12-28T22:21:48.041Z,-4.80
2022-12-28T22:24:14.835Z,-4.80
2022-12-28T22:26:41.656Z,-4.80
2022-12-28T22:29:08.545Z,-4.70
2022-12-28T22:31:39.523Z,-4.70
2022-12-28T22:34:07.471Z,-4.70
2022-12-28T22:36:34.550Z,-4.70
2022-12-28T22:39:01.311Z,-4.70
2022-12-28T22:41:28.129Z,-4.70
2022-12-28T22:43:54.977Z,-4.70
2022-12-28T22:46:22.012Z,-4.60
2022-12-28T22:48:49.899Z,-4.60
2022-12-28T22:51:17.176Z,-4.60
2022-12-28T22:53:44.232Z,-4.70
2022-12-28T22:56:19.545Z,-4.70
2022-12-28T22:58:47.952Z,-4.70
2022-12-28T23:01:17.670Z,-4.60
2022-12-28T23:03:46.153Z,-4.60
2022-12-28T23:06:14.862Z,-4.60
2022-12-28T23:08:42.063Z,-4.60
2022-12-28T23:11:30.718Z,-4.60
2022-12-28T23:14:18.515Z,-4.50
2022-12-28T23:16:45.640Z,-4.40
2022-12-28T23:19:31.405Z,-4.40
2022-12-28T23:22:17.119Z,-4.40
2022-12-28T23:25:02.798Z,-4.40
2022-12-28T23:27:39.302Z,-4.40
2022-12-28T23:30:09.410Z,-4.40
2022-12-28T23:32:36.219Z,-4.50
2022-12-28T23:35:04.026Z,-4.50
2022-12-28T23:37:31.063Z,-4.60
2022-12-28T23:39:57.973Z,-4.60
2022-12-28T23:42:24.879Z,-4.60
2022-12-28T23:44:51.750Z,-4.70
2022-12-28T23:47:19.744Z,-4.70
2022-12-28T23:49:46.668Z,-4.80
2022-12-28T23:52:13.433Z,-4.80
2022-12-28T23:54:40.328Z,-4.90
2022-12-28T23:57:07.122Z,-4.90
2022-12-28T23:59:33.891Z,-4.90
